createdAt,value
2019-05-19T00:02:28.093Z,85.00
2019-05-19T00:07:31.206Z,83.60
2019-05-19T00:12:35.725Z,90.70
2019-05-19T00:17:44.601Z,89.40
2019-05-19T00:22:48.685Z,87.30
2019-05-19T00:27:53.029Z,85.00
2019-05-19T00:32:57.290Z,83.50
2019-05-19T00:38:01.260Z,84.70
2019-05-19T00:43:06.079Z,85.70
2019-05-19T00:48:12.984Z,84.60
2019-05-19T00:53:19.165Z,92.00
2019-05-19T00:58:46.746Z,86.90
2019-05-19T01:03:52.128Z,87.00
2019-05-19T01:08:56.155Z,88.40
2019-05-19T01:14:00.408Z,84.80
2019-05-19T01:19:04.643Z,91.50
2019-05-19T01:24:08.933Z,91.00
2019-05-19T01:29:13.016Z,86.50
2019-05-19T01:34:17.577Z,88.30
2019-05-19T01:39:22.281Z,85.50
2019-05-19T01:44:30.294Z,89.90
2019-05-19T01:49:34.325Z,91.10
2019-05-19T01:54:38.491Z,89.90
2019-05-19T01:59:45.145Z,88.90
2019-05-19T02:04:49.276Z,85.50
2019-05-19T02:09:53.391Z,86.10
2019-05-19T02:14:57.679Z,84.50
2019-05-19T02:20:01.854Z,86.50
2019-05-19T02:25:06.925Z,88.20
2019-05-19T02:30:11.045Z,89.90
2019-05-19T02:35:16.427Z,88.50
2019-05-19T02:40:20.676Z,86.60
2019-05-19T02:45:29.556Z,85.20
2019-05-19T02:50:51.542Z,86.00
2019-05-19T02:55:44.019Z,90.20
2019-05-19T03:00:48.080Z,90.50
2019-05-19T03:05:52.538Z,88.10
2019-05-19T03:10:58.396Z,87.50
2019-05-19T03:16:02.999Z,87.00
2019-05-19T03:21:11.006Z,85.90
2019-05-19T03:26:15.708Z,90.50
2019-05-19T03:31:32.409Z,90.70
2019-05-19T03:36:36.758Z,89.50
2019-05-19T03:41:42.015Z,89.90
2019-05-19T03:46:46.270Z,90.30
2019-05-19T03:51:50.611Z,90.00
2019-05-19T03:56:55.214Z,88.60
2019-05-19T04:01:58.311Z,89.90
2019-05-19T04:07:05.078Z,90.90
2019-05-19T04:12:11.396Z,90.50
2019-05-19T04:17:15.469Z,88.00
2019-05-19T04:22:20.232Z,92.20
2019-05-19T04:27:24.262Z,92.20
2019-05-19T04:32:28.524Z,91.20
2019-05-19T04:37:32.887Z,92.40
2019-05-19T04:42:40.229Z,91.90
2019-05-19T04:47:44.545Z,90.30
2019-05-19T04:52:49.394Z,92.50
2019-05-19T04:57:53.972Z,91.60
2019-05-19T05:02:57.347Z,91.40
2019-05-19T05:08:01.452Z,92.00
2019-05-19T05:13:06.841Z,92.30
2019-05-19T05:18:10.987Z,92.20
2019-05-19T05:23:15.304Z,92.00
2019-05-19T05:28:19.428Z,90.30
2019-05-19T05:33:23.724Z,90.00
2019-05-19T05:38:28.152Z,88.30
2019-05-19T05:43:37.007Z,86.40
2019-05-19T05:48:41.412Z,84.60
2019-05-19T05:53:47.024Z,85.10
2019-05-19T05:58:51.624Z,87.30
2019-05-19T06:03:55.978Z,85.30
2019-05-19T06:09:01.369Z,85.50
2019-05-19T06:14:06.293Z,90.00
2019-05-19T06:19:10.674Z,89.60
2019-05-19T06:24:19.055Z,89.50
2019-05-19T06:29:23.398Z,87.20
2019-05-19T06:34:31.049Z,84.00
2019-05-19T06:39:40.596Z,79.60
2019-05-19T06:44:46.569Z,77.60
2019-05-19T06:49:50.822Z,72.90
2019-05-19T06:54:54.993Z,67.30
2019-05-19T07:00:03.894Z,65.10
2019-05-19T07:05:15.338Z,63.60
2019-05-19T07:10:24.225Z,60.20
2019-05-19T07:15:28.623Z,58.50
2019-05-19T07:20:41.816Z,57.40
2019-05-19T07:25:47.759Z,53.90
2019-05-19T07:30:54.352Z,54.30
2019-05-19T07:36:05.384Z,52.10
2019-05-19T07:41:09.929Z,49.60
2019-05-19T07:46:14.850Z,47.80
2019-05-19T07:51:19.576Z,47.30
2019-05-19T07:56:23.854Z,48.60
2019-05-19T08:01:27.958Z,49.50
2019-05-19T08:06:32.303Z,48.20
2019-05-19T08:11:42.858Z,48.30
2019-05-19T08:16:46.864Z,45.10
2019-05-19T08:21:51.030Z,46.80
2019-05-19T08:26:59.361Z,42.80
2019-05-19T08:32:03.435Z,43.20
2019-05-19T08:37:07.544Z,43.70
2019-05-19T08:42:11.843Z,44.20
2019-05-19T08:47:16.027Z,40.80
2019-05-19T08:52:19.960Z,41.10
2019-05-19T08:57:24.441Z,41.90
2019-05-19T09:02:29.708Z,43.50
2019-05-19T09:07:33.973Z,45.50
2019-05-19T09:12:38.077Z,44.40
2019-05-19T09:17:45.287Z,41.70
2019-05-19T09:22:49.459Z,44.40
2019-05-19T09:27:54.950Z,42.30
2019-05-19T09:33:00.427Z,39.40
2019-05-19T09:38:07.252Z,41.20
2019-05-19T09:43:16.568Z,40.30
2019-05-19T09:48:20.862Z,41.70
2019-05-19T09:53:26.014Z,39.50
2019-05-19T09:58:47.306Z,40.60
2019-05-19T10:03:51.616Z,40.30
2019-05-19T10:09:09.166Z,37.90
2019-05-19T10:14:22.116Z,38.60
2019-05-19T10:19:35.952Z,37.10
2019-05-19T10:24:40.018Z,37.90
2019-05-19T10:29:47.591Z,38.80
2019-05-19T10:34:51.883Z,37.80
2019-05-19T10:39:55.982Z,38.60
2019-05-19T10:44:59.464Z,42.90
2019-05-19T10:50:07.881Z,45.60
2019-05-19T10:55:13.672Z,43.40
2019-05-19T11:00:20.723Z,43.80
2019-05-19T11:05:24.937Z,41.70
2019-05-19T11:10:38.044Z,41.40
2019-05-19T11:15:46.284Z,36.70
2019-05-19T11:20:50.406Z,36.50
2019-05-19T11:26:02.531Z,39.60
2019-05-19T11:31:08.227Z,41.70
2019-05-19T11:36:16.616Z,39.40
2019-05-19T11:41:25.190Z,39.60
2019-05-19T11:46:29.463Z,37.40
2019-05-19T11:51:38.313Z,41.10
2019-05-19T11:56:53.781Z,36.80
2019-05-19T12:02:06.736Z,34.50
2019-05-19T12:07:13.879Z,34.80
2019-05-19T12:12:22.168Z,35.20
2019-05-19T12:17:26.094Z,36.50
2019-05-19T12:22:33.185Z,37.70
2019-05-19T12:27:40.873Z,40.20
2019-05-19T12:32:45.413Z,39.40
2019-05-19T12:37:51.894Z,39.50
2019-05-19T12:42:59.121Z,39.10
2019-05-19T12:48:05.890Z,37.30
2019-05-19T12:53:15.441Z,38.00
2019-05-19T12:58:25.344Z,37.60
2019-05-19T13:03:29.765Z,37.20
2019-05-19T13:08:35.547Z,38.40
2019-05-19T13:13:43.104Z,38.60
2019-05-19T13:18:47.907Z,41.80
2019-05-19T13:23:56.028Z,43.50
2019-05-19T13:29:04.544Z,44.80
2019-05-19T13:34:12.154Z,45.00
2019-05-19T13:39:21.036Z,44.50
2019-05-19T13:44:27.424Z,47.90
2019-05-19T13:49:32.261Z,49.20
2019-05-19T13:54:36.872Z,49.80
2019-05-19T13:59:41.174Z,50.50
2019-05-19T14:04:52.219Z,50.80
2019-05-19T14:09:56.325Z,55.80
2019-05-19T14:15:04.347Z,56.10
2019-05-19T14:20:13.761Z,60.50
2019-05-19T14:25:19.324Z,61.60
2019-05-19T14:30:30.346Z,63.70
2019-05-19T14:35:56.475Z,63.70
2019-05-19T14:41:04.655Z,63.10
2019-05-19T14:46:16.718Z,62.70
2019-05-19T14:51:43.934Z,61.90
2019-05-19T14:56:55.530Z,62.40
2019-05-19T15:02:20.422Z,61.90
2019-05-19T15:07:26.407Z,61.10
2019-05-19T15:12:33.083Z,61.50
2019-05-19T15:17:39.268Z,61.00
2019-05-19T15:22:43.400Z,61.90
2019-05-19T15:33:57.792Z,61.70
2019-05-19T15:39:03.505Z,61.50
2019-05-19T15:44:07.770Z,61.20
2019-05-19T16:01:41.607Z,58.50
2019-05-19T16:07:49.286Z,57.10
2019-05-19T16:12:56.485Z,57.40
2019-05-19T16:18:07.107Z,57.00
2019-05-19T16:23:29.238Z,57.80
2019-05-19T16:28:32.687Z,57.30
2019-05-19T16:33:38.154Z,56.70
2019-05-19T16:38:42.322Z,56.80
2019-05-19T16:43:46.416Z,56.10
2019-05-19T16:48:52.745Z,55.80
2019-05-19T16:54:01.016Z,55.30
2019-05-19T16:59:05.858Z,55.30
2019-05-19T17:04:13.272Z,55.70
2019-05-19T17:09:17.351Z,55.30
2019-05-19T17:14:25.046Z,55.10
2019-05-19T17:19:29.225Z,55.70
2019-05-19T17:24:34.847Z,55.80
2019-05-19T17:29:38.933Z,56.00
2019-05-19T17:34:50.017Z,56.30
2019-05-19T17:39:54.393Z,56.80
2019-05-19T17:45:01.490Z,57.10
2019-05-19T17:50:06.656Z,56.70
2019-05-19T17:55:12.532Z,57.10
2019-05-19T18:00:22.118Z,58.50
2019-05-19T18:05:35.605Z,58.40
2019-05-19T18:10:46.575Z,58.10
2019-05-19T18:15:52.136Z,58.70
2019-05-19T18:20:59.570Z,58.90
2019-05-19T18:26:20.801Z,59.50
2019-05-19T18:31:32.241Z,60.20
2019-05-19T18:36:40.133Z,60.30
2019-05-19T18:41:47.041Z,61.10
2019-05-19T18:46:52.571Z,62.50
2019-05-19T18:52:02.606Z,63.30
2019-05-19T18:57:07.074Z,64.40
2019-05-19T19:02:13.352Z,65.40
2019-05-19T19:07:21.059Z,65.00
2019-05-19T19:12:25.481Z,66.00
2019-05-19T19:17:31.085Z,66.30
2019-05-19T19:22:35.292Z,67.00
2019-05-19T19:27:39.698Z,68.00
2019-05-19T19:32:47.808Z,70.30
2019-05-19T19:37:52.560Z,68.60
2019-05-19T19:43:00.054Z,69.40
2019-05-19T19:48:07.067Z,70.90
2019-05-19T19:53:43.821Z,70.80
2019-05-19T19:58:48.333Z,71.70
2019-05-19T20:03:56.608Z,73.20
2019-05-19T20:09:01.089Z,72.90
2019-05-19T20:14:04.463Z,73.10
2019-05-19T20:20:03.614Z,72.80
2019-05-19T20:25:10.400Z,73.70
2019-05-19T20:30:14.686Z,74.00
2019-05-19T20:35:19.270Z,74.60
2019-05-19T20:40:23.136Z,74.80
2019-05-19T20:45:40.961Z,74.90
2019-05-19T20:50:42.268Z,76.70
2019-05-19T20:55:46.773Z,76.70
2019-05-19T21:01:05.752Z,76.60
2019-05-19T21:06:12.420Z,77.00
2019-05-19T21:11:17.013Z,77.30
2019-05-19T21:16:20.427Z,78.40
2019-05-19T21:21:24.551Z,77.60
2019-05-19T21:26:29.965Z,76.90
2019-05-19T21:31:46.455Z,77.40
2019-05-19T21:36:51.745Z,77.80
2019-05-19T21:41:56.179Z,77.20
2019-05-19T21:47:18.461Z,77.60
2019-05-19T21:52:22.865Z,77.60
2019-05-19T21:57:28.503Z,77.80
2019-05-19T22:02:33.313Z,78.50
2019-05-19T22:07:58.598Z,78.70
2019-05-19T22:13:02.933Z,78.50
2019-05-19T22:18:07.066Z,79.20
2019-05-19T22:23:11.390Z,79.30
2019-05-19T22:28:15.596Z,78.80
2019-05-19T22:33:19.668Z,79.80
2019-05-19T22:38:23.878Z,82.60
2019-05-19T22:43:29.628Z,80.00
2019-05-19T22:48:34.049Z,79.70
2019-05-19T22:53:38.193Z,79.70
2019-05-19T22:58:48.891Z,80.70
2019-05-19T23:03:52.918Z,80.40
2019-05-19T23:27:11.517Z,82.90
2019-05-19T23:32:21.930Z,81.70
2019-05-19T23:37:46.128Z,82.10
2019-05-19T23:42:52.950Z,83.90
2019-05-19T23:47:57.435Z,82.70
2019-05-19T23:53:04.879Z,82.40
2019-05-19T23:58:19.178Z,82.10
